Indian Lake, NY

3:31 AM EDT on August 22, 2014 (GMT -0400)
Indian Lake | Change Station
CLOSE
Current Station
Personal Weather Station
Location: Indian Lake, NY
Elevation: 1660 ft
Nearby Weather Stations

Elev 1660 ft 43.75 °N, 74.28 °W | Updated 3 seconds ago

Overcast
Overcast
61.0 °F
Feels Like 61.0 °F
N
3.5
Wind Variable Wind from ENE
Gusts 3.6 mph

Today
High -- | Low -- °F
--% Chance of Precip.
Yesterday
High -- | Low -- °F
Precip. -- in
6:09 AM 7:49 PM
Waning Crescent, 9% visible
Pressure 30.03 in
Visibility 10.0 miles
Clouds Overcast 2400 ft
Dew Point 58 °F
Humidity 90%
Rainfall 0.00 in
Snow Depth Not available.
UV 0 out of 12
Pollen 2.20 out of 12
Air Quality Not available.
Flu Activity Not available.
METAR KGFL 220653Z AUTO 05004KT 10SM OVC024 17/16 A3003 RMK AO2 SLP167 T01720156 $

More Conditions Fewer Conditions

Pressure 30.03 in
Visibility 10.0 miles
Clouds Overcast 2400 ft
Dew Point 58 °F
Humidity 90%
Rainfall 0.00 in
Snow Depth Not available.
UV 0 out of 12
Pollen 2.20 out of 12
Air Quality Not available.
Flu Activity Not available.
METAR KGFL 220653Z AUTO 05004KT 10SM OVC024 17/16 A3003 RMK AO2 SLP167 T01720156 $

More Conditions Fewer Conditions

10-Day Weather Forecast

Almanac

Astronomy

Aug. 22, 2014 Rise Set
Actual Time 6:09 AM EDT 7:49 PM EDT
Civil Twilight 5:38 AM EDT 8:20 PM EDT
Nautical Twilight 5:01 AM EDT 8:56 PM EDT
Astronomical Twilight 4:21 AM EDT 9:36 PM EDT
Moon 3:27 AM EDT 5:58 PM EDT
Length of Visible Light 14h 41m
Length of Day
13h 40m
Tomorrow will be 2m 46s shorter.
Waning Crescent, 9% of the Moon is Illuminated
Today
Waning Crescent
Aug 25
New
Sep 2
First Quarter
Sep 8
Full
Sep 15
Last Quarter

Today's Extremes

State Highs State Lows

Community

WunderPhotos

Upload Photos

1,746,131 photos uploaded!

Nearby

Air Quality

  Air Quality AQ Index Pollutant
Friday Good
OZONE
Friday Good
PM2.5

Snow Depth

Station Depth Elevation
No new snow has been reported.

Earthquake Activity

City Distance Mag. Time & Date
No recent earthquake activity has been reported nearby.
Minimum magnitude displayed is 2.5.

Coastal Water Temperatures

Place Temperature
No Stations Reporting

Nearby Weather Stations